sensor_id;sensor_type;location;lat;lon;timestamp;pressure;altitude;pressure_sealevel;temperature;humidity
5679;BME280;2862;52.560;13.566;2023-05-24T00:04:00;100923.44;;;13.59;62.57
5679;BME280;2862;52.560;13.566;2023-05-24T00:14:03;100922.88;;;13.45;62.45
5679;BME280;2862;52.560;13.566;2023-05-24T00:24:09;100928.41;;;13.44;62.46
5679;BME280;2862;52.560;13.566;2023-05-24T00:34:11;100932.78;;;13.45;62.18
5679;BME280;2862;52.560;13.566;2023-05-24T00:44:16;100925.31;;;13.48;61.59
5679;BME280;2862;52.560;13.566;2023-05-24T00:54:19;100919.47;;;13.14;62.54
5679;BME280;2862;52.560;13.566;2023-05-24T01:04:25;100921.38;;;12.83;63.28
5679;BME280;2862;52.560;13.566;2023-05-24T01:14:49;100924.59;;;12.67;63.49
5679;BME280;2862;52.560;13.566;2023-05-24T01:25:03;100929.09;;;12.36;64.54
5679;BME280;2862;52.560;13.566;2023-05-24T01:35:12;100930.63;;;12.29;64.82
5679;BME280;2862;52.560;13.566;2023-05-24T01:45:20;100931.13;;;12.13;65.37
5679;BME280;2862;52.560;13.566;2023-05-24T01:55:27;100943.59;;;12.24;64.66
5679;BME280;2862;52.560;13.566;2023-05-24T02:05:31;100941.44;;;12.48;64.43
5679;BME280;2862;52.560;13.566;2023-05-24T02:15:40;100943.94;;;12.71;63.30
5679;BME280;2862;52.560;13.566;2023-05-24T02:25:47;100936.72;;;12.71;63.29
5679;BME280;2862;52.560;13.566;2023-05-24T02:35:51;100936.47;;;12.74;63.13
5679;BME280;2862;52.560;13.566;2023-05-24T02:45:57;100938.13;;;12.66;63.35
5679;BME280;2862;52.560;13.566;2023-05-24T02:56:02;100938.97;;;12.66;63.98
5679;BME280;2862;52.560;13.566;2023-05-24T03:06:06;100941.00;;;12.84;64.04
5679;BME280;2862;52.560;13.566;2023-05-24T03:16:11;100946.66;;;12.81;64.17
5679;BME280;2862;52.560;13.566;2023-05-24T03:26:15;100936.75;;;12.81;64.27
5679;BME280;2862;52.560;13.566;2023-05-24T03:36:20;100948.75;;;12.77;65.07
5679;BME280;2862;52.560;13.566;2023-05-24T03:46:24;100956.97;;;12.95;64.92
5679;BME280;2862;52.560;13.566;2023-05-24T03:56:30;100969.31;;;13.07;64.91
5679;BME280;2862;52.560;13.566;2023-05-24T04:06:32;100970.53;;;13.34;64.09
5679;BME280;2862;52.560;13.566;2023-05-24T04:16:39;100971.53;;;13.62;62.96
5679;BME280;2862;52.560;13.566;2023-05-24T04:26:42;100971.63;;;13.99;62.52
5679;BME280;2862;52.560;13.566;2023-05-24T04:36:49;100985.44;;;14.33;63.54
5679;BME280;2862;52.560;13.566;2023-05-24T04:46:53;100994.00;;;15.03;59.19
5679;BME280;2862;52.560;13.566;2023-05-24T04:56:58;100993.38;;;14.81;58.43
5679;BME280;2862;52.560;13.566;2023-05-24T05:07:02;101013.47;;;14.40;59.22
5679;BME280;2862;52.560;13.566;2023-05-24T05:17:06;101023.28;;;14.02;59.60
5679;BME280;2862;52.560;13.566;2023-05-24T05:27:09;101031.09;;;13.96;60.51
5679;BME280;2862;52.560;13.566;2023-05-24T05:37:14;101037.69;;;14.30;58.55
5679;BME280;2862;52.560;13.566;2023-05-24T05:47:17;101047.00;;;14.55;58.35
5679;BME280;2862;52.560;13.566;2023-05-24T05:57:22;101053.56;;;14.53;58.02
5679;BME280;2862;52.560;13.566;2023-05-24T06:07:26;101051.00;;;14.42;57.99
5679;BME280;2862;52.560;13.566;2023-05-24T06:17:30;101067.63;;;14.84;56.62
5679;BME280;2862;52.560;13.566;2023-05-24T06:27:34;101082.88;;;15.30;55.40
5679;BME280;2862;52.560;13.566;2023-05-24T06:37:39;101079.38;;;15.93;53.97
5679;BME280;2862;52.560;13.566;2023-05-24T06:47:42;101095.41;;;16.74;51.05
5679;BME280;2862;52.560;13.566;2023-05-24T06:57:47;101099.34;;;18.80;45.79
5679;BME280;2862;52.560;13.566;2023-05-24T07:07:50;101092.72;;;21.72;38.76
5679;BME280;2862;52.560;13.566;2023-05-24T07:17:55;101097.38;;;21.57;38.57
5679;BME280;2862;52.560;13.566;2023-05-24T07:28:00;101111.19;;;19.90;41.94
5679;BME280;2862;52.560;13.566;2023-05-24T07:38:04;101127.66;;;18.53;44.88
5679;BME280;2862;52.560;13.566;2023-05-24T07:48:08;101140.16;;;18.54;45.57
5679;BME280;2862;52.560;13.566;2023-05-24T07:58:13;101140.50;;;18.83;45.58
5679;BME280;2862;52.560;13.566;2023-05-24T08:08:16;101144.44;;;21.72;40.38
5679;BME280;2862;52.560;13.566;2023-05-24T08:18:21;101141.88;;;21.35;39.10
5679;BME280;2862;52.560;13.566;2023-05-24T08:28:25;101156.44;;;20.21;41.08
5679;BME280;2862;52.560;13.566;2023-05-24T08:38:30;101159.44;;;19.16;43.37
5679;BME280;2862;52.560;13.566;2023-05-24T08:48:40;101177.56;;;19.16;44.23
5679;BME280;2862;52.560;13.566;2023-05-24T08:58:49;101180.06;;;18.19;45.05
5679;BME280;2862;52.560;13.566;2023-05-24T09:08:53;101187.44;;;18.76;44.79
5679;BME280;2862;52.560;13.566;2023-05-24T09:18:59;101182.41;;;19.45;44.28
5679;BME280;2862;52.560;13.566;2023-05-24T09:29:05;101185.56;;;19.65;42.51
5679;BME280;2862;52.560;13.566;2023-05-24T09:39:10;101192.19;;;17.99;45.41
5679;BME280;2862;52.560;13.566;2023-05-24T09:49:15;101191.53;;;17.97;45.35
5679;BME280;2862;52.560;13.566;2023-05-24T09:59:20;101196.84;;;18.64;43.70
5679;BME280;2862;52.560;13.566;2023-05-24T10:09:28;101201.91;;;18.26;45.79
5679;BME280;2862;52.560;13.566;2023-05-24T10:19:36;101217.59;;;17.72;46.55
5679;BME280;2862;52.560;13.566;2023-05-24T10:29:45;101213.41;;;18.20;45.68
5679;BME280;2862;52.560;13.566;2023-05-24T10:39:54;101221.34;;;18.21;44.98
5679;BME280;2862;52.560;13.566;2023-05-24T10:49:57;101228.19;;;18.66;44.18
5679;BME280;2862;52.560;13.566;2023-05-24T11:00:26;101225.34;;;18.68;44.22
5679;BME280;2862;52.560;13.566;2023-05-24T11:10:34;101227.72;;;18.95;44.38
5679;BME280;2862;52.560;13.566;2023-05-24T11:20:42;101211.41;;;18.63;43.83
5679;BME280;2862;52.560;13.566;2023-05-24T11:30:46;101215.44;;;18.26;45.48
5679;BME280;2862;52.560;13.566;2023-05-24T11:40:51;101223.19;;;18.13;45.14
5679;BME280;2862;52.560;13.566;2023-05-24T11:50:57;101225.44;;;18.25;45.00
5679;BME280;2862;52.560;13.566;2023-05-24T12:01:03;101225.69;;;19.05;43.65
5679;BME280;2862;52.560;13.566;2023-05-24T12:11:06;101214.47;;;19.25;41.27
5679;BME280;2862;52.560;13.566;2023-05-24T12:21:11;101223.28;;;19.19;41.44
5679;BME280;2862;52.560;13.566;2023-05-24T12:31:14;101226.88;;;18.95;42.01
5679;BME280;2862;52.560;13.566;2023-05-24T12:41:18;101223.66;;;18.83;42.66
5679;BME280;2862;52.560;13.566;2023-05-24T12:51:22;101229.06;;;19.07;43.25
5679;BME280;2862;52.560;13.566;2023-05-24T13:01:26;101232.81;;;19.06;41.68
5679;BME280;2862;52.560;13.566;2023-05-24T13:11:30;101232.44;;;19.09;41.42
5679;BME280;2862;52.560;13.566;2023-05-24T13:21:35;101224.00;;;18.96;41.53
5679;BME280;2862;52.560;13.566;2023-05-24T13:31:38;101220.25;;;19.22;41.46
5679;BME280;2862;52.560;13.566;2023-05-24T13:41:43;101223.41;;;19.42;41.25
5679;BME280;2862;52.560;13.566;2023-05-24T13:51:46;101237.66;;;19.44;42.52
5679;BME280;2862;52.560;13.566;2023-05-24T14:01:51;101228.16;;;19.48;41.47
5679;BME280;2862;52.560;13.566;2023-05-24T14:11:54;101220.63;;;18.94;41.44
5679;BME280;2862;52.560;13.566;2023-05-24T14:22:00;101226.47;;;18.57;41.68
5679;BME280;2862;52.560;13.566;2023-05-24T14:32:03;101217.91;;;18.86;39.50
5679;BME280;2862;52.560;13.566;2023-05-24T14:42:08;101219.00;;;18.26;41.36
5679;BME280;2862;52.560;13.566;2023-05-24T14:52:11;101212.38;;;18.29;43.29
5679;BME280;2862;52.560;13.566;2023-05-24T15:02:16;101223.34;;;18.11;43.56
5679;BME280;2862;52.560;13.566;2023-05-24T15:12:20;101222.84;;;18.16;42.87
5679;BME280;2862;52.560;13.566;2023-05-24T15:22:25;101221.59;;;18.61;42.47
5679;BME280;2862;52.560;13.566;2023-05-24T15:32:31;101214.00;;;18.64;41.15
5679;BME280;2862;52.560;13.566;2023-05-24T15:42:36;101215.72;;;18.81;41.40
5679;BME280;2862;52.560;13.566;2023-05-24T15:52:39;101207.53;;;18.57;42.42
5679;BME280;2862;52.560;13.566;2023-05-24T16:02:43;101219.59;;;18.79;41.95
5679;BME280;2862;52.560;13.566;2023-05-24T16:12:47;101220.25;;;18.65;41.94
5679;BME280;2862;52.560;13.566;2023-05-24T16:22:51;101219.25;;;18.74;43.06
5679;BME280;2862;52.560;13.566;2023-05-24T16:32:54;101225.97;;;18.45;42.51
5679;BME280;2862;52.560;13.566;2023-05-24T16:42:59;101232.22;;;18.29;42.74
5679;BME280;2862;52.560;13.566;2023-05-24T16:53:02;101229.13;;;18.16;44.47
5679;BME280;2862;52.560;13.566;2023-05-24T17:03:08;101224.19;;;18.12;45.05
5679;BME280;2862;52.560;13.566;2023-05-24T17:13:10;101222.97;;;17.98;45.57
5679;BME280;2862;52.560;13.566;2023-05-24T17:23:15;101233.22;;;17.78;46.64
5679;BME280;2862;52.560;13.566;2023-05-24T17:33:20;101250.56;;;18.01;46.13
5679;BME280;2862;52.560;13.566;2023-05-24T17:43:25;101246.09;;;17.84;46.54
5679;BME280;2862;52.560;13.566;2023-05-24T17:53:32;101256.25;;;17.64;47.46
5679;BME280;2862;52.560;13.566;2023-05-24T18:03:37;101256.97;;;17.40;48.63
5679;BME280;2862;52.560;13.566;2023-05-24T18:13:41;101260.81;;;17.12;49.55
5679;BME280;2862;52.560;13.566;2023-05-24T18:23:45;101276.22;;;16.93;50.55
5679;BME280;2862;52.560;13.566;2023-05-24T18:33:48;101283.06;;;16.70;51.80
5679;BME280;2862;52.560;13.566;2023-05-24T18:43:52;101284.78;;;16.43;52.96
5679;BME280;2862;52.560;13.566;2023-05-24T18:53:55;101294.06;;;16.13;54.12
5679;BME280;2862;52.560;13.566;2023-05-24T19:03:59;101293.00;;;15.97;54.72
5679;BME280;2862;52.560;13.566;2023-05-24T19:14:03;101313.50;;;15.80;55.80
5679;BME280;2862;52.560;13.566;2023-05-24T19:24:07;101324.31;;;15.60;56.41
5679;BME280;2862;52.560;13.566;2023-05-24T19:34:10;101342.78;;;15.46;56.92
5679;BME280;2862;52.560;13.566;2023-05-24T19:44:14;101351.72;;;15.36;57.61
5679;BME280;2862;52.560;13.566;2023-05-24T19:54:16;101352.28;;;15.30;58.11
5679;BME280;2862;52.560;13.566;2023-05-24T20:04:20;101351.31;;;15.12;58.51
5679;BME280;2862;52.560;13.566;2023-05-24T20:14:24;101354.00;;;15.02;59.39
5679;BME280;2862;52.560;13.566;2023-05-24T20:24:30;101348.59;;;14.73;60.24
5679;BME280;2862;52.560;13.566;2023-05-24T20:34:33;101357.78;;;14.61;60.66
5679;BME280;2862;52.560;13.566;2023-05-24T20:44:37;101364.84;;;14.52;61.35
5679;BME280;2862;52.560;13.566;2023-05-24T20:54:41;101367.63;;;14.41;62.24
5679;BME280;2862;52.560;13.566;2023-05-24T21:04:45;101376.06;;;14.27;62.76
5679;BME280;2862;52.560;13.566;2023-05-24T21:14:49;101396.16;;;14.23;63.38
5679;BME280;2862;52.560;13.566;2023-05-24T21:24:56;101404.78;;;14.17;64.00
5679;BME280;2862;52.560;13.566;2023-05-24T21:34:59;101412.78;;;14.07;64.36
5679;BME280;2862;52.560;13.566;2023-05-24T21:45:04;101424.31;;;13.98;65.02
5679;BME280;2862;52.560;13.566;2023-05-24T21:55:08;101424.72;;;13.93;65.17
5679;BME280;2862;52.560;13.566;2023-05-24T22:05:13;101427.34;;;13.84;66.44
5679;BME280;2862;52.560;13.566;2023-05-24T22:15:16;101429.97;;;13.74;66.43
5679;BME280;2862;52.560;13.566;2023-05-24T22:25:22;101441.09;;;13.69;67.80
5679;BME280;2862;52.560;13.566;2023-05-24T22:35:26;101439.75;;;13.54;68.70
5679;BME280;2862;52.560;13.566;2023-05-24T22:45:30;101440.50;;;13.45;69.01
5679;BME280;2862;52.560;13.566;2023-05-24T22:55:34;101447.63;;;13.35;70.47
5679;BME280;2862;52.560;13.566;2023-05-24T23:05:38;101446.56;;;13.26;71.35
5679;BME280;2862;52.560;13.566;2023-05-24T23:15:42;101433.38;;;13.23;71.50
5679;BME280;2862;52.560;13.566;2023-05-24T23:25:47;101436.53;;;13.17;71.71
5679;BME280;2862;52.560;13.566;2023-05-24T23:35:50;101432.53;;;13.11;72.13
5679;BME280;2862;52.560;13.566;2023-05-24T23:45:55;101442.91;;;13.16;71.72
5679;BME280;2862;52.560;13.566;2023-05-24T23:55:58;101442.41;;;13.22;71.59
